Kezdőlap
METAR-TAF:

METAR-TAF

Repülőterek :

Grootfontein, Namíbia

földrajzi szélesség: 19-36S, földrajzi hosszúság: 018-07E, magasság: 1411 m

Jelenlegi meteorológiai megfigyelések

A jelentés 56 perccel ezelõtt készült, 20:00 UTC
Északnyugati szél 4 kt
Hőmérséklet 15°C
Páratartalom 25%
Légköri nyomás 1024 hPa

METAR: FYGF 192000Z AUTO 31004KT //// // ////// 15/M05 Q1024

Idő: 22:56 (20:56 UTC)

Előrejelzés

A jelentés 3 órával és 56 perccel ezelõtt készült, 17:00 UTC
Az előrejelzés 19-én 18 óra UTC és 20-én 03 óra UTC között érvényes
Nyugat-északnyugati szél 3 kt
Látótávolság 10 km, vagy több
felhőtlen 1500 m magasságban, és nincs gomolyfelhõ

TAF: FYGF 191700Z 1918/2003 29003KT CAVOK

Meteorológiai megfigyelések és előrejelzések több, mint 4000 repülőtéren (METAR és TAF jelentéseket).

A térképen piros és sárga pontok jelzik az elérhető meteorológiai állomásokat.

Mozgassa az egeret a pont fölött, hogy megjelenjen az állomás neve.

Azután kattintson az időjárási megfigyelések és előrejelzések megtekintéséhez.

A térkép megváltoztatása: kattintson a fekete keresztel jelölt zöld gombra ráközelítéshez, a vonallal jelölt zöld gombra távolításhoz, vagy a zöld nyilakra a szomszédos térképek eléréséhez.


METAR-TAF: